Time;durP1;ratioP1;P1;durP2;ratioP2;P2;SDS_P1;SDS_P2;PMS_P1;PMS_P2;Temp;Humidity;BMP_temperature;BMP_pressure;BME280_temperature;BME280_humidity;BME280_pressure;Samples;Min_cycle;Max_cycle;Signal;HPM_P1;HPM_P2
2023/07/26 00:02:24;;;;;;;3.40;2.70;;;;;;;17.90;65.11;101054.59;5294625;28;20026;-71
2023/07/26 00:04:56;;;;;;;4.20;2.20;;;;;;;17.79;64.14;101054.69;5294821;28;20042;-72
2023/07/26 00:07:27;;;;;;;2.93;2.00;;;;;;;17.65;65.13;101053.25;5293335;28;20613;-72
2023/07/26 00:09:58;;;;;;;5.87;2.20;;;;;;;17.72;65.35;101054.41;5295232;28;20066;-72
2023/07/26 00:12:30;;;;;;;4.13;2.13;;;;;;;17.69;65.67;101049.38;5294852;28;20079;-73
2023/07/26 00:15:01;;;;;;;6.50;2.27;;;;;;;17.59;65.92;101038.75;5293425;28;20028;-77
2023/07/26 00:17:32;;;;;;;5.80;2.90;;;;;;;17.75;65.76;101050.66;5277406;28;20023;-76
2023/07/26 00:20:04;;;;;;;4.37;2.30;;;;;;;17.65;66.41;101055.91;5279788;28;20032;-71
2023/07/26 00:22:36;;;;;;;5.27;2.60;;;;;;;17.64;66.39;101049.78;5294330;28;20521;-72
2023/07/26 00:25:07;;;;;;;8.80;2.63;;;;;;;17.54;67.88;101038.31;5276487;28;20599;-72
2023/07/26 00:27:38;;;;;;;5.10;2.70;;;;;;;17.54;68.35;101046.25;5295083;28;20055;-71
2023/07/26 00:30:10;;;;;;;5.27;2.60;;;;;;;17.57;68.65;101046.00;5295122;28;20090;-70
2023/07/26 00:32:42;;;;;;;3.90;2.70;;;;;;;17.60;68.27;101047.50;5295172;28;20534;-72
2023/07/26 00:35:25;;;;;;;5.17;2.77;;;;;;;17.60;68.01;101043.06;5294100;28;20157;-74
2023/07/26 00:37:57;;;;;;;6.80;3.00;;;;;;;17.56;67.65;101040.81;5293459;28;20070;-74
2023/07/26 00:40:28;;;;;;;5.13;2.63;;;;;;;17.51;68.95;101051.78;5295235;28;20059;-74
2023/07/26 00:42:59;;;;;;;4.30;3.00;;;;;;;17.46;68.64;101038.97;5281501;28;20050;-74
2023/07/26 00:45:33;;;;;;;3.20;2.70;;;;;;;17.46;70.03;101044.25;5297549;28;20119;-72
2023/07/26 00:48:06;;;;;;;6.80;3.08;;;;;;;17.46;69.55;101043.41;5291792;28;20035;-72
2023/07/26 00:50:41;;;;;;;3.77;2.80;;;;;;;17.61;69.45;101049.22;5288857;28;20032;-70
2023/07/26 00:53:14;;;;;;;5.40;2.73;;;;;;;17.46;69.22;101044.25;5289785;28;20395;-70
2023/07/26 00:55:45;;;;;;;4.70;2.70;;;;;;;17.48;69.61;101044.13;5265897;28;20082;-71
2023/07/26 00:58:17;;;;;;;4.87;2.43;;;;;;;17.50;70.01;101037.75;5294368;28;20466;-72
2023/07/26 01:00:50;;;;;;;9.57;3.13;;;;;;;17.48;70.24;101041.47;5293942;28;20028;-72
2023/07/26 01:03:21;;;;;;;5.10;2.70;;;;;;;17.36;70.58;101038.94;5273031;28;20715;-71
2023/07/26 01:06:33;;;;;;;6.67;3.23;;;;;;;17.64;69.72;101041.84;5278455;28;20042;-71
2023/07/26 01:09:31;;;;;;;3.37;2.33;;;;;;;17.49;70.57;101040.53;5265764;28;20024;-72
2023/07/26 01:12:10;;;;;;;4.37;2.80;;;;;;;17.40;71.52;101042.97;5292606;28;20082;-71
2023/07/26 01:14:53;;;;;;;6.03;2.50;;;;;;;17.48;71.96;101044.13;5294214;28;20024;-72
2023/07/26 01:17:25;;;;;;;5.50;3.17;;;;;;;17.27;72.30;101034.41;5293060;28;20590;-72
2023/07/26 01:19:56;;;;;;;3.73;2.97;;;;;;;17.14;73.58;101048.69;5275181;28;20028;-71
2023/07/26 01:22:27;;;;;;;4.50;2.60;;;;;;;17.20;74.13;101046.50;5292522;28;20048;-72
2023/07/26 01:24:59;;;;;;;5.03;2.90;;;;;;;17.15;73.97;101046.91;5293808;28;20024;-71
2023/07/26 01:27:30;;;;;;;5.27;3.27;;;;;;;17.07;74.30;101052.78;5293124;28;20509;-71
2023/07/26 01:30:01;;;;;;;5.97;3.43;;;;;;;17.06;75.35;101048.47;5275348;28;20664;-71
2023/07/26 01:32:34;;;;;;;5.27;3.17;;;;;;;17.00;76.44;101043.72;5294127;28;20035;-72
2023/07/26 01:35:06;;;;;;;7.37;3.63;;;;;;;16.99;76.89;101049.97;5275418;28;20051;-71
2023/07/26 01:37:37;;;;;;;3.73;2.53;;;;;;;17.02;76.66;101053.19;5287879;28;20035;-71
2023/07/26 01:40:10;;;;;;;6.83;3.17;;;;;;;16.90;79.20;101043.63;5293541;28;20016;-70
2023/07/26 01:42:41;;;;;;;3.60;2.93;;;;;;;16.84;77.98;101045.00;5293768;28;20052;-71
2023/07/26 01:45:13;;;;;;;3.97;3.37;;;;;;;16.90;79.35;101043.63;5293380;28;20123;-70
2023/07/26 01:47:44;;;;;;;5.40;2.90;;;;;;;16.76;81.48;101042.16;5294294;28;20046;-71
2023/07/26 01:50:15;;;;;;;5.20;2.90;;;;;;;16.93;79.25;101046.88;5297617;28;20184;-71
2023/07/26 01:52:47;;;;;;;4.40;2.90;;;;;;;16.82;80.32;101036.34;5278006;28;20382;-71
2023/07/26 01:55:18;;;;;;;5.73;2.97;;;;;;;16.86;80.31;101037.75;5290673;28;20017;-70
2023/07/26 01:57:49;;;;;;;3.03;2.53;;;;;;;16.71;81.07;101033.75;5289980;28;20040;-71
2023/07/26 02:00:21;;;;;;;7.07;2.73;;;;;;;16.74;81.09;101042.28;5276031;28;20035;-71
2023/07/26 02:02:53;;;;;;;5.47;3.17;;;;;;;16.69;81.21;101036.53;5289804;28;20036;-70
2023/07/26 02:05:24;;;;;;;5.43;3.93;;;;;;;16.65;82.25;101033.28;5278835;28;20118;-72
2023/07/26 02:07:56;;;;;;;7.27;2.83;;;;;;;16.66;82.90;101035.00;5284303;28;20931;-70
2023/07/26 02:10:27;;;;;;;6.17;2.73;;;;;;;16.53;82.68;101036.97;5294763;28;20028;-71
2023/07/26 02:12:58;;;;;;;4.40;2.53;;;;;;;16.52;82.20;101041.41;5297264;28;20059;-72
2023/07/26 02:15:30;;;;;;;5.00;2.70;;;;;;;16.47;82.21;101029.53;5297027;28;20028;-72
2023/07/26 02:18:01;;;;;;;4.63;2.80;;;;;;;16.49;83.05;101038.19;5296962;28;20044;-73
2023/07/26 02:20:33;;;;;;;3.67;2.50;;;;;;;16.33;85.15;101036.81;5297218;28;20059;-72
2023/07/26 02:23:05;;;;;;;4.97;2.87;;;;;;;16.24;87.90;101032.25;5295485;28;20090;-72
2023/07/26 02:25:36;;;;;;;5.67;3.37;;;;;;;15.98;90.28;101028.09;5297304;28;20115;-71
2023/07/26 02:28:07;;;;;;;3.33;2.53;;;;;;;16.05;89.52;101033.75;5267902;28;20551;-72
2023/07/26 02:30:38;;;;;;;4.07;2.73;;;;;;;15.91;90.37;101035.66;5279368;28;20031;-71
2023/07/26 02:33:10;;;;;;;4.93;2.30;;;;;;;16.09;89.07;101032.56;5278352;28;20038;-71
2023/07/26 02:35:41;;;;;;;4.23;2.30;;;;;;;16.20;88.67;101035.16;5297137;28;20099;-71
2023/07/26 02:38:12;;;;;;;5.57;2.40;;;;;;;16.00;91.53;101028.00;5277890;28;20085;-72
2023/07/26 02:40:44;;;;;;;3.70;2.30;;;;;;;15.91;93.26;101033.03;5296772;28;20074;-71
2023/07/26 02:43:15;;;;;;;3.60;2.10;;;;;;;16.21;87.61;101023.59;5296609;28;20143;-70
2023/07/26 02:45:47;;;;;;;3.83;2.20;;;;;;;16.21;86.77;101020.97;5296278;28;20035;-72
2023/07/26 02:48:18;;;;;;;3.50;2.17;;;;;;;16.11;89.40;101032.44;5295255;28;20024;-71
2023/07/26 02:50:49;;;;;;;3.23;2.13;;;;;;;16.16;89.42;101036.34;5296292;28;20552;-71
2023/07/26 02:53:21;;;;;;;3.57;2.13;;;;;;;16.20;86.83;101040.44;5294546;28;20020;-71
2023/07/26 02:55:52;;;;;;;4.70;1.97;;;;;;;16.19;85.60;101045.84;5290876;28;20029;-71
2023/07/26 02:58:24;;;;;;;2.97;2.27;;;;;;;16.18;86.15;101034.44;5293073;28;20056;-71
2023/07/26 03:00:55;;;;;;;6.70;2.53;;;;;;;16.14;92.53;101050.66;5296168;28;20040;-71
2023/07/26 03:03:26;;;;;;;4.27;2.77;;;;;;;16.07;100.00;101052.97;5295368;28;20016;-71
2023/07/26 03:05:57;;;;;;;3.93;2.27;;;;;;;15.97;100.00;101056.31;5277957;28;20032;-71
2023/07/26 03:08:29;;;;;;;4.13;2.70;;;;;;;15.96;100.00;101053.78;5294600;28;20031;-71
2023/07/26 03:11:00;;;;;;;5.77;3.27;;;;;;;16.03;100.00;101048.88;5294926;28;20066;-71
2023/07/26 03:13:31;;;;;;;4.53;3.20;;;;;;;15.89;100.00;101049.94;5295755;28;20031;-71
2023/07/26 03:16:03;;;;;;;5.30;3.23;;;;;;;16.07;100.00;101047.69;5277011;28;20054;-71
2023/07/26 03:18:34;;;;;;;4.77;3.00;;;;;;;16.04;100.00;101046.13;5274593;28;20058;-71
2023/07/26 03:21:06;;;;;;;5.20;3.23;;;;;;;15.96;100.00;101033.50;5283483;28;20052;-71
2023/07/26 03:23:37;;;;;;;4.57;3.17;;;;;;;15.95;100.00;101046.84;5261653;28;20748;-71
2023/07/26 03:26:09;;;;;;;5.03;3.10;;;;;;;15.65;100.00;101043.00;5295949;28;20351;-70
2023/07/26 03:28:40;;;;;;;4.33;3.43;;;;;;;15.89;100.00;101045.50;5276722;28;20050;-70
2023/07/26 03:31:11;;;;;;;3.77;3.10;;;;;;;15.63;100.00;101044.94;5286709;28;20036;-71
2023/07/26 03:33:43;;;;;;;3.67;2.80;;;;;;;15.75;100.00;101053.69;5288916;28;20054;-71
2023/07/26 03:36:14;;;;;;;4.93;3.20;;;;;;;15.69;100.00;101053.19;5294709;28;20076;-71
2023/07/26 03:38:45;;;;;;;4.20;3.23;;;;;;;15.82;100.00;101054.88;5294984;28;20032;-72
2023/07/26 03:41:17;;;;;;;4.73;3.43;;;;;;;15.41;100.00;101058.00;5295103;28;20046;-71
2023/07/26 03:43:48;;;;;;;5.97;3.47;;;;;;;15.57;100.00;101059.44;5295300;28;20036;-71
2023/07/26 03:46:19;;;;;;;3.57;3.00;;;;;;;15.36;100.00;101060.16;5294522;28;20500;-71
2023/07/26 03:48:51;;;;;;;4.97;3.20;;;;;;;15.35;100.00;101058.47;5281388;28;20357;-71
2023/07/26 03:51:22;;;;;;;4.10;2.67;;;;;;;15.08;100.00;101051.72;5292909;28;20089;-71
2023/07/26 03:53:53;;;;;;;4.60;3.00;;;;;;;15.30;100.00;101050.06;5295497;28;20032;-71
2023/07/26 03:56:25;;;;;;;3.97;2.50;;;;;;;15.47;100.00;101048.75;5294112;28;20031;-71
2023/07/26 03:58:56;;;;;;;4.63;3.00;;;;;;;15.43;100.00;101053.44;5290148;28;20024;-70
2023/07/26 04:01:27;;;;;;;3.80;2.37;;;;;;;15.17;100.00;101055.47;5294581;28;20052;-71
2023/07/26 04:03:58;;;;;;;3.10;2.63;;;;;;;14.97;100.00;101037.56;5294300;28;20024;-71
2023/07/26 04:06:30;;;;;;;4.00;2.50;;;;;;;14.97;100.00;101047.25;5293427;28;20059;-70
2023/07/26 04:09:01;;;;;;;3.67;2.60;;;;;;;15.03;100.00;101043.31;5293758;28;20024;-71
2023/07/26 04:11:32;;;;;;;4.57;3.73;;;;;;;14.96;100.00;101051.69;5293441;28;20094;-71
2023/07/26 04:14:04;;;;;;;4.83;3.03;;;;;;;15.06;100.00;101051.00;5294539;28;20352;-70
2023/07/26 04:16:35;;;;;;;3.80;3.03;;;;;;;15.11;100.00;101051.50;5294177;28;20486;-70
2023/07/26 04:19:06;;;;;;;4.73;2.90;;;;;;;15.05;100.00;101049.31;5293894;28;20028;-71
2023/07/26 04:21:38;;;;;;;4.33;2.40;;;;;;;14.95;100.00;101051.81;5292642;28;20070;-71
2023/07/26 04:24:09;;;;;;;5.37;3.50;;;;;;;14.92;100.00;101047.63;5294526;28;20028;-71
2023/07/26 04:26:40;;;;;;;4.17;2.90;;;;;;;15.18;100.00;101047.44;5294129;28;20028;-72
2023/07/26 04:29:11;;;;;;;5.40;3.70;;;;;;;14.76;100.00;101054.00;5288597;28;20043;-69
2023/07/26 04:31:43;;;;;;;6.63;3.70;;;;;;;15.11;100.00;101054.94;5288889;28;20032;-71
2023/07/26 04:34:17;;;;;;;6.33;3.80;;;;;;;14.84;100.00;101044.69;5293721;28;20674;-71
2023/07/26 04:36:48;;;;;;;5.55;3.78;;;;;;;14.86;100.00;101037.50;5275774;28;20020;-71
2023/07/26 04:39:19;;;;;;;5.13;3.90;;;;;;;15.12;100.00;101046.09;5293692;28;20039;-71
2023/07/26 04:41:50;;;;;;;9.20;5.30;;;;;;;15.14;100.00;101053.88;5283040;28;20513;-70
2023/07/26 04:44:22;;;;;;;7.43;4.37;;;;;;;15.20;100.00;101050.78;5270758;28;20043;-71
2023/07/26 04:46:53;;;;;;;7.70;4.53;;;;;;;14.93;100.00;101044.00;5287777;28;20079;-70
2023/07/26 04:49:24;;;;;;;6.40;4.10;;;;;;;15.24;100.00;101054.88;5293555;28;20012;-70
2023/07/26 04:51:56;;;;;;;5.97;4.43;;;;;;;14.89;100.00;101050.47;5293101;28;20058;-70
2023/07/26 04:54:27;;;;;;;8.83;4.87;;;;;;;15.27;100.00;101055.59;5293899;28;20115;-71
2023/07/26 04:56:58;;;;;;;5.87;4.70;;;;;;;15.12;100.00;101048.72;5293679;28;20470;-70
2023/07/26 04:59:30;;;;;;;5.47;4.60;;;;;;;15.08;100.00;101031.44;5293766;28;20028;-70
2023/07/26 05:02:01;;;;;;;6.70;5.13;;;;;;;15.38;100.00;101055.59;5293259;28;20573;-72
2023/07/26 05:04:32;;;;;;;7.73;5.90;;;;;;;15.39;100.00;101054.66;5276096;28;20032;-71
2023/07/26 05:07:04;;;;;;;8.63;4.73;;;;;;;15.41;100.00;101052.72;5293097;28;20092;-70
2023/07/26 05:09:35;;;;;;;6.83;4.83;;;;;;;15.39;100.00;101049.38;5259871;28;20043;-70
2023/07/26 05:12:07;;;;;;;9.47;5.73;;;;;;;15.39;100.00;101052.00;5280624;28;20048;-71
2023/07/26 05:14:41;;;;;;;5.93;4.60;;;;;;;15.42;100.00;101059.69;5261205;28;20028;-72
2023/07/26 05:17:12;;;;;;;10.43;5.57;;;;;;;15.42;100.00;101057.06;5300277;28;20030;-71
2023/07/26 05:19:43;;;;;;;17.53;5.40;;;;;;;15.33;100.00;101055.97;5285338;28;20278;-71
2023/07/26 05:22:15;;;;;;;8.10;4.47;;;;;;;15.39;100.00;101049.38;5295102;28;20055;-71
2023/07/26 05:24:46;;;;;;;9.87;5.73;;;;;;;15.32;100.00;101053.44;5279623;28;20036;-71
2023/07/26 05:27:17;;;;;;;8.90;4.63;;;;;;;15.33;100.00;101052.47;5272419;28;20238;-72
2023/07/26 05:29:49;;;;;;;7.50;4.90;;;;;;;15.43;100.00;101055.25;5277106;28;20119;-72
2023/07/26 05:32:20;;;;;;;8.37;5.37;;;;;;;15.41;100.00;101058.00;5296523;28;20031;-72
2023/07/26 05:34:54;;;;;;;7.30;5.37;;;;;;;15.48;100.00;101061.03;5279713;28;20035;-71
2023/07/26 05:37:25;;;;;;;7.72;5.75;;;;;;;15.48;100.00;101058.38;5296318;28;20027;-72
2023/07/26 05:39:57;;;;;;;9.50;5.47;;;;;;;15.50;100.00;101048.53;5298199;28;20370;-72
2023/07/26 05:42:28;;;;;;;7.67;5.67;;;;;;;15.58;100.00;101054.06;5297585;28;20111;-72
2023/07/26 05:44:59;;;;;;;7.90;5.30;;;;;;;15.55;100.00;101053.47;5297412;28;20045;-71
2023/07/26 05:47:33;;;;;;;8.60;6.17;;;;;;;15.58;100.00;101063.78;5296681;28;20021;-71
2023/07/26 05:50:06;;;;;;;9.80;5.30;;;;;;;15.68;100.00;101063.88;5296949;28;20024;-72
2023/07/26 05:52:38;;;;;;;9.20;6.07;;;;;;;15.71;100.00;101061.00;5296705;28;20028;-71
2023/07/26 05:55:09;;;;;;;8.43;5.57;;;;;;;15.76;100.00;101060.66;5296734;28;20024;-71
2023/07/26 05:57:41;;;;;;;8.90;5.93;;;;;;;15.75;100.00;101058.97;5292984;28;20474;-71
2023/07/26 06:00:13;;;;;;;11.70;6.17;;;;;;;15.80;100.00;101054.16;5296868;28;20020;-71
2023/07/26 06:02:45;;;;;;;8.87;5.90;;;;;;;15.87;100.00;101063.28;5297306;28;20210;-71
2023/07/26 06:05:16;;;;;;;10.40;6.23;;;;;;;15.92;100.00;101061.13;5297300;28;20073;-71
2023/07/26 06:07:49;;;;;;;11.47;7.33;;;;;;;15.99;100.00;101063.28;5263558;28;20020;-71
2023/07/26 06:10:20;;;;;;;14.07;7.03;;;;;;;16.07;100.00;101063.53;5297248;28;20139;-71
2023/07/26 06:12:52;;;;;;;12.50;6.63;;;;;;;16.12;100.00;101071.09;5296486;28;20123;-71
2023/07/26 06:15:23;;;;;;;11.13;6.73;;;;;;;16.20;100.00;101066.88;5297175;28;20024;-71
2023/07/26 06:17:54;;;;;;;12.73;6.83;;;;;;;16.37;100.00;101080.50;5296651;28;20509;-71
2023/07/26 06:20:26;;;;;;;10.10;7.60;;;;;;;16.42;100.00;101083.63;5282660;28;20024;-71
2023/07/26 06:22:57;;;;;;;11.87;7.50;;;;;;;16.48;100.00;101084.09;5278227;28;20391;-71
2023/07/26 06:25:29;;;;;;;15.67;7.20;;;;;;;16.50;100.00;101087.44;5296606;28;20487;-72
2023/07/26 06:28:01;;;;;;;12.87;8.17;;;;;;;16.44;100.00;101097.53;5283578;28;20115;-71
2023/07/26 06:30:32;;;;;;;12.07;7.63;;;;;;;16.48;100.00;101092.03;5295115;28;20020;-72
2023/07/26 06:33:03;;;;;;;10.00;7.40;;;;;;;16.59;100.00;101110.50;5295592;28;20032;-71
2023/07/26 06:35:35;;;;;;;12.90;8.60;;;;;;;16.59;100.00;101121.06;5296087;28;20031;-72
2023/07/26 06:38:08;;;;;;;12.07;7.73;;;;;;;16.64;100.00;101112.75;5296222;28;20024;-72
2023/07/26 06:40:40;;;;;;;11.55;7.43;;;;;;;16.62;100.00;101115.53;5296539;28;20155;-70
2023/07/26 06:43:11;;;;;;;10.27;7.80;;;;;;;16.57;100.00;101112.41;5296376;28;20123;-71
2023/07/26 06:45:46;;;;;;;12.33;8.70;;;;;;;16.66;100.00;101122.25;5296402;28;20024;-70
2023/07/26 06:48:18;;;;;;;17.93;9.00;;;;;;;16.53;100.00;101116.28;5295862;28;20050;-70
2023/07/26 06:50:50;;;;;;;14.27;7.90;;;;;;;16.48;100.00;101118.47;5295098;28;20040;-71
2023/07/26 06:53:21;;;;;;;17.10;8.60;;;;;;;16.54;100.00;101126.75;5277798;28;20060;-71
2023/07/26 06:55:57;;;;;;;16.00;8.87;;;;;;;16.66;100.00;101127.53;5296371;28;20031;-71
2023/07/26 06:58:28;;;;;;;11.60;8.53;;;;;;;16.56;100.00;101130.06;5295750;28;20061;-70
2023/07/26 07:00:59;;;;;;;12.13;8.67;;;;;;;16.60;100.00;101130.66;5295789;28;20027;-70
2023/07/26 07:03:31;;;;;;;15.03;9.80;;;;;;;16.58;100.00;101129.97;5296071;28;20525;-71
2023/07/26 07:06:02;;;;;;;13.53;9.73;;;;;;;16.52;100.00;101136.59;5294768;28;20032;-71
2023/07/26 07:08:33;;;;;;;15.43;9.17;;;;;;;16.48;100.00;101123.75;5296083;28;20742;-71
2023/07/26 07:11:05;;;;;;;12.00;9.03;;;;;;;16.50;100.00;101127.09;5295098;28;20035;-70
2023/07/26 07:13:36;;;;;;;14.83;9.30;;;;;;;16.52;100.00;101141.03;5281826;28;20723;-71
2023/07/26 07:16:07;;;;;;;14.73;9.03;;;;;;;16.50;100.00;101142.97;5295267;28;20024;-71
2023/07/26 07:18:39;;;;;;;11.63;9.23;;;;;;;16.45;100.00;101151.25;5295347;28;20020;-71
2023/07/26 07:21:10;;;;;;;13.77;9.30;;;;;;;16.51;100.00;101150.75;5281539;28;20050;-71
2023/07/26 07:23:41;;;;;;;18.30;9.43;;;;;;;16.49;100.00;101157.16;5294000;28;20386;-71
2023/07/26 07:26:13;;;;;;;14.10;8.97;;;;;;;16.50;100.00;101164.97;5277299;28;20046;-71
2023/07/26 07:28:44;;;;;;;18.60;10.73;;;;;;;16.42;100.00;101162.09;5290025;28;20020;-71
2023/07/26 07:31:17;;;;;;;15.30;9.27;;;;;;;16.55;100.00;101167.22;5285778;28;20069;-71
2023/07/26 07:33:48;;;;;;;12.93;9.50;;;;;;;16.56;100.00;101174.19;5295826;28;20093;-71
2023/07/26 07:36:19;;;;;;;12.13;8.77;;;;;;;16.65;100.00;101181.38;5275935;28;20032;-71
2023/07/26 07:38:51;;;;;;;14.20;8.73;;;;;;;16.58;100.00;101161.72;5295016;28;20024;-72
2023/07/26 07:41:22;;;;;;;11.30;8.10;;;;;;;16.71;100.00;101181.84;5294720;28;20067;-72
2023/07/26 07:43:53;;;;;;;12.13;8.80;;;;;;;16.69;100.00;101182.81;5295086;28;20516;-72
2023/07/26 07:46:28;;;;;;;12.17;8.07;;;;;;;16.84;100.00;101177.25;5294629;28;20027;-72
2023/07/26 07:49:00;;;;;;;18.93;8.30;;;;;;;17.06;100.00;101175.47;5291366;28;20128;-72
2023/07/26 07:51:31;;;;;;;13.53;8.10;;;;;;;17.76;100.00;101176.81;5282626;28;20103;-73
2023/07/26 07:54:02;;;;;;;14.30;9.33;;;;;;;18.50;100.00;101169.56;5294701;28;20071;-70
2023/07/26 07:56:34;;;;;;;12.50;8.33;;;;;;;18.86;100.00;101169.06;5295472;28;20080;-71
2023/07/26 07:59:05;;;;;;;10.07;6.60;;;;;;;19.68;100.00;101164.38;5263229;28;20024;-71
2023/07/26 08:01:37;;;;;;;10.27;7.57;;;;;;;20.25;100.00;101158.16;5275515;28;20078;-72
2023/07/26 08:04:08;;;;;;;9.93;6.20;;;;;;;20.58;100.00;101160.31;5263317;28;20085;-71
2023/07/26 08:06:40;;;;;;;7.90;6.47;;;;;;;20.61;100.00;101172.50;5291995;28;20032;-72
2023/07/26 08:09:11;;;;;;;9.70;6.07;;;;;;;20.72;100.00;101158.16;5294580;28;20099;-72
2023/07/26 08:11:42;;;;;;;9.40;5.73;;;;;;;21.15;100.00;101158.38;5294479;28;20139;-72
2023/07/26 08:14:13;;;;;;;7.80;6.03;;;;;;;21.89;100.00;101159.84;5294510;28;20043;-72
2023/07/26 08:16:45;;;;;;;11.35;5.88;;;;;;;22.38;97.82;101158.34;5271843;28;20032;-73
2023/07/26 08:19:16;;;;;;;10.40;6.32;;;;;;;23.13;95.50;101155.78;5284028;28;20032;-73
2023/07/26 08:21:47;;;;;;;6.80;5.55;;;;;;;23.18;93.61;101166.78;5293334;28;20110;-72
2023/07/26 08:24:19;;;;;;;8.10;5.70;;;;;;;23.69;88.22;101152.38;5294345;28;20020;-72
2023/07/26 08:26:51;;;;;;;10.10;5.65;;;;;;;24.57;80.37;101166.69;5280058;28;20032;-72
2023/07/26 08:29:23;;;;;;;10.90;5.32;;;;;;;25.08;70.25;101162.63;5293421;28;20097;-72
2023/07/26 08:31:54;;;;;;;9.02;5.25;;;;;;;25.31;64.42;101153.69;5294317;28;20032;-71
2023/07/26 08:34:25;;;;;;;8.65;5.40;;;;;;;26.00;69.24;101150.94;5265733;28;20127;-72
2023/07/26 08:36:57;;;;;;;9.20;5.50;;;;;;;25.09;68.01;101164.31;5271450;28;20038;-71
2023/07/26 08:39:28;;;;;;;7.90;5.28;;;;;;;26.10;59.29;101164.91;5294023;28;20026;-71
2023/07/26 08:42:00;;;;;;;8.23;4.95;;;;;;;26.51;54.19;101161.84;5276276;28;20221;-71
2023/07/26 08:44:33;;;;;;;7.93;4.78;;;;;;;26.63;50.94;101156.81;5293424;28;20034;-72
2023/07/26 08:47:05;;;;;;;6.07;4.57;;;;;;;25.80;55.97;101167.63;5293267;28;20032;-71
2023/07/26 08:49:37;;;;;;;10.43;5.00;;;;;;;26.21;55.97;101160.06;5294134;28;20081;-72
2023/07/26 08:52:09;;;;;;;7.80;4.85;;;;;;;25.68;59.16;101164.56;5292963;28;20028;-72
2023/07/26 08:54:42;;;;;;;7.60;5.57;;;;;;;25.64;56.49;101165.09;5294347;28;20028;-72
2023/07/26 08:57:16;;;;;;;8.18;5.25;;;;;;;26.97;52.03;101165.97;5296213;28;20032;-72
2023/07/26 08:59:47;;;;;;;6.88;4.47;;;;;;;27.46;48.89;101158.09;5301333;28;20016;-72
2023/07/26 09:02:19;;;;;;;8.95;4.80;;;;;;;27.95;48.37;101147.38;5300389;28;20110;-72
2023/07/26 09:04:51;;;;;;;5.68;4.10;;;;;;;28.25;44.52;101152.47;5300952;28;20478;-72
2023/07/26 09:07:22;;;;;;;5.78;4.05;;;;;;;28.81;45.38;101146.13;5300253;28;20036;-73
2023/07/26 09:09:54;;;;;;;5.57;3.80;;;;;;;28.46;43.34;101147.97;5303958;28;20023;-72
2023/07/26 09:12:27;;;;;;;6.78;3.97;;;;;;;27.62;45.09;101148.03;5311225;28;20093;-72
2023/07/26 09:15:07;;;;;;;4.93;3.75;;;;;;;27.81;44.77;101149.19;5300542;28;20095;-72
2023/07/26 09:17:40;;;;;;;5.00;3.78;;;;;;;27.12;43.92;101143.59;5282612;28;20963;-72
2023/07/26 09:20:20;;;;;;;5.97;4.05;;;;;;;27.21;43.89;101139.75;5277128;28;20760;-72
2023/07/26 09:22:59;;;;;;;5.57;4.50;;;;;;;26.50;46.95;101141.38;5292616;28;20603;-72
2023/07/26 09:25:31;;;;;;;6.13;3.97;;;;;;;26.62;47.60;101145.22;5293443;28;20099;-73
2023/07/26 09:28:03;;;;;;;6.50;4.45;;;;;;;26.60;46.45;101141.09;5292609;28;20119;-73
2023/07/26 09:30:36;;;;;;;10.80;4.82;;;;;;;27.04;45.38;101141.88;5300634;28;20707;-72
2023/07/26 09:33:10;;;;;;;7.10;4.00;;;;;;;27.84;41.61;101151.47;5281962;28;20069;-72
2023/07/26 09:35:44;;;;;;;5.25;3.03;;;;;;;27.23;40.89;101147.63;5299453;28;20031;-72
2023/07/26 09:38:18;;;;;;;7.63;3.90;;;;;;;27.30;40.39;101151.16;5300746;28;20032;-72
2023/07/26 09:40:50;;;;;;;6.50;3.97;;;;;;;26.87;42.00;101150.19;5300240;28;20028;-73
2023/07/26 09:43:29;;;;;;;4.25;2.28;;;;;;;26.92;39.01;101154.97;5282258;28;20020;-73
2023/07/26 09:46:02;;;;;;;6.20;2.60;;;;;;;26.79;36.90;101156.53;5281603;28;20185;-73
2023/07/26 09:48:33;;;;;;;5.65;2.30;;;;;;;27.50;36.15;101158.53;5300442;28;20028;-71
2023/07/26 09:51:08;;;;;;;2.83;1.67;;;;;;;28.19;34.75;101150.56;5299620;28;20379;-72
2023/07/26 09:53:39;;;;;;;2.65;1.58;;;;;;;28.46;33.38;101161.44;5300605;28;20081;-72
2023/07/26 09:56:11;;;;;;;2.42;1.30;;;;;;;29.11;32.54;101154.63;5296442;28;20141;-71
2023/07/26 09:58:42;;;;;;;3.20;1.73;;;;;;;28.82;33.66;101151.31;5300434;28;20075;-72
2023/07/26 10:01:16;;;;;;;7.25;1.95;;;;;;;29.10;32.75;101144.06;5299921;28;20031;-72
2023/07/26 10:03:51;;;;;;;3.75;2.17;;;;;;;29.30;32.79;101154.00;5272593;28;20120;-73
2023/07/26 10:06:23;;;;;;;3.00;1.77;;;;;;;28.99;33.54;101143.66;5292571;28;20059;-73
2023/07/26 10:08:55;;;;;;;4.35;2.58;;;;;;;28.65;33.68;101144.66;5285048;28;20059;-73
2023/07/26 10:11:28;;;;;;;5.05;3.30;;;;;;;28.26;34.43;101148.72;5296840;28;20048;-73
2023/07/26 10:14:00;;;;;;;4.65;2.83;;;;;;;27.82;35.54;101144.66;5297621;28;20055;-72
2023/07/26 10:16:31;;;;;;;6.00;2.58;;;;;;;27.66;36.52;101149.31;5296454;28;20028;-72
2023/07/26 10:19:03;;;;;;;3.65;2.85;;;;;;;27.22;38.07;101137.88;5296877;28;20028;-73
2023/07/26 10:21:37;;;;;;;7.40;2.97;;;;;;;27.04;39.57;101142.72;5295831;28;20029;-71
2023/07/26 10:24:09;;;;;;;;;;;;;;;28.63;37.30;101137.63;5297457;28;20027;-72
2023/07/26 10:26:42;;;;;;;5.63;3.55;;;;;;;28.20;38.13;101129.88;5275699;28;19916;-72
2023/07/26 10:29:14;;;;;;;5.40;3.22;;;;;;;28.58;39.05;101136.56;5296283;28;20083;-72
2023/07/26 10:31:46;;;;;;;4.45;3.00;;;;;;;29.83;36.57;101136.81;5296405;28;20471;-72
2023/07/26 10:34:21;;;;;;;5.82;3.72;;;;;;;30.23;35.34;101134.16;5296408;28;20425;-72
2023/07/26 10:36:52;;;;;;;5.05;3.05;;;;;;;30.33;34.68;101137.22;5277310;28;20036;-72
2023/07/26 10:39:34;;;;;;;4.28;3.00;;;;;;;30.38;34.04;101128.44;5296206;28;20089;-72
2023/07/26 10:42:05;;;;;;;4.63;3.55;;;;;;;29.66;34.76;101132.94;5296541;28;20028;-73
2023/07/26 10:44:42;;;;;;;4.32;2.83;;;;;;;29.80;33.78;101139.13;5277979;28;20069;-73
2023/07/26 10:47:14;;;;;;;3.90;3.05;;;;;;;28.66;36.90;101125.59;5295934;28;20059;-72
2023/07/26 10:49:49;;;;;;;4.63;3.25;;;;;;;28.88;35.10;101138.88;5296363;28;20556;-73
2023/07/26 10:52:20;;;;;;;4.97;3.03;;;;;;;28.73;35.84;101129.13;5294525;28;20032;-73
2023/07/26 10:54:52;;;;;;;9.35;3.50;;;;;;;29.22;35.29;101136.16;5295840;28;20409;-72
2023/07/26 10:57:26;;;;;;;7.28;3.70;;;;;;;30.05;35.93;101138.38;5295861;28;20103;-72
2023/07/26 11:00:23;;;;;;;4.65;3.33;;;;;;;30.13;35.09;101124.63;5294619;28;20024;-72
2023/07/26 11:03:04;;;;;;;6.00;4.00;;;;;;;30.40;34.92;101118.25;5277347;28;20057;-72
2023/07/26 11:05:38;;;;;;;4.72;3.70;;;;;;;30.58;33.37;101133.69;5295040;28;20463;-73
2023/07/26 11:08:10;;;;;;;7.53;4.18;;;;;;;30.23;31.98;101126.88;5291501;28;20086;-73
2023/07/26 11:10:51;;;;;;;4.53;3.38;;;;;;;30.28;32.87;101132.47;5285506;28;20130;-73
2023/07/26 11:13:29;;;;;;;3.78;3.00;;;;;;;29.97;33.42;101130.53;5295302;28;20092;-73
2023/07/26 11:16:02;;;;;;;4.60;3.15;;;;;;;30.36;33.58;101123.28;5277340;28;20032;-73
2023/07/26 11:18:40;;;;;;;4.85;3.35;;;;;;;30.22;34.08;101129.78;5294834;28;20024;-73
2023/07/26 11:21:15;;;;;;;7.32;3.53;;;;;;;30.35;32.40;101128.91;5294602;28;20024;-71
2023/07/26 11:23:46;;;;;;;5.10;3.22;;;;;;;29.88;32.96;101129.97;5295202;28;20059;-72
2023/07/26 11:26:18;;;;;;;6.68;3.78;;;;;;;30.26;32.54;101136.44;5290078;28;20062;-72
2023/07/26 11:28:49;;;;;;;5.57;3.70;;;;;;;29.38;34.39;101129.47;5294029;28;20434;-72
2023/07/26 11:31:22;;;;;;;4.18;3.35;;;;;;;29.86;33.06;101132.88;5295159;28;20127;-72
2023/07/26 11:33:53;;;;;;;5.40;3.13;;;;;;;29.88;31.83;101130.81;5295319;28;20055;-71
2023/07/26 11:36:25;;;;;;;3.95;2.95;;;;;;;29.98;33.14;101127.63;5293886;28;20306;-72
2023/07/26 11:38:56;;;;;;;4.72;3.25;;;;;;;29.75;32.93;101136.25;5295070;28;20031;-73
2023/07/26 11:41:27;;;;;;;4.85;3.33;;;;;;;29.60;32.13;101137.31;5289086;28;20012;-72
2023/07/26 11:43:59;;;;;;;8.45;4.07;;;;;;;29.45;32.63;101130.31;5295492;28;20055;-72